sensor_id;sensor_type;location;lat;lon;timestamp;pressure;altitude;pressure_sealevel;temperature;humidity
57644;BME280;43474;46.510;6.686;2024-01-11T00:00:37;96998.91;;;-1.30;100.00
57644;BME280;43474;46.510;6.686;2024-01-11T00:03:23;97056.22;;;-1.04;100.00
57644;BME280;43474;46.510;6.686;2024-01-11T00:05:49;97041.00;;;-0.99;100.00
57644;BME280;43474;46.510;6.686;2024-01-11T00:08:14;97080.31;;;-0.84;100.00
57644;BME280;43474;46.510;6.686;2024-01-11T00:10:40;97057.91;;;-0.95;100.00
57644;BME280;43474;46.510;6.686;2024-01-11T00:13:06;97083.69;;;-1.01;100.00
57644;BME280;43474;46.510;6.686;2024-01-11T00:15:31;97067.88;;;-1.08;100.00
57644;BME280;43474;46.510;6.686;2024-01-11T00:17:57;97078.28;;;-0.90;100.00
57644;BME280;43474;46.510;6.686;2024-01-11T00:20:23;97053.44;;;-1.20;100.00
57644;BME280;43474;46.510;6.686;2024-01-11T00:22:48;97060.06;;;-1.08;100.00
57644;BME280;43474;46.510;6.686;2024-01-11T00:25:14;97052.09;;;-1.24;100.00
57644;BME280;43474;46.510;6.686;2024-01-11T00:27:40;97049.50;;;-1.24;100.00
57644;BME280;43474;46.510;6.686;2024-01-11T00:30:06;97008.13;;;-1.53;100.00
57644;BME280;43474;46.510;6.686;2024-01-11T00:32:32;97080.44;;;-1.03;100.00
57644;BME280;43474;46.510;6.686;2024-01-11T00:34:58;97040.13;;;-1.35;100.00
57644;BME280;43474;46.510;6.686;2024-01-11T00:37:24;97034.19;;;-1.27;100.00
57644;BME280;43474;46.510;6.686;2024-01-11T00:39:50;97063.13;;;-1.13;100.00
57644;BME280;43474;46.510;6.686;2024-01-11T00:42:16;97071.19;;;-1.16;100.00
57644;BME280;43474;46.510;6.686;2024-01-11T00:44:41;97073.75;;;-1.06;100.00
57644;BME280;43474;46.510;6.686;2024-01-11T00:47:07;97058.94;;;-1.06;100.00
57644;BME280;43474;46.510;6.686;2024-01-11T00:49:33;97067.88;;;-1.08;100.00
57644;BME280;43474;46.510;6.686;2024-01-11T00:51:58;97073.31;;;-1.19;100.00
57644;BME280;43474;46.510;6.686;2024-01-11T00:54:24;97019.91;;;-1.41;100.00
57644;BME280;43474;46.510;6.686;2024-01-11T00:56:50;96987.75;;;-1.40;100.00
57644;BME280;43474;46.510;6.686;2024-01-11T00:59:16;97021.31;;;-1.47;100.00
57644;BME280;43474;46.510;6.686;2024-01-11T01:01:47;97044.22;;;-1.33;100.00
57644;BME280;43474;46.510;6.686;2024-01-11T01:04:13;97046.28;;;-1.36;100.00
57644;BME280;43474;46.510;6.686;2024-01-11T01:06:38;97040.31;;;-1.19;100.00
57644;BME280;43474;46.510;6.686;2024-01-11T01:09:04;97089.00;;;-0.93;100.00
57644;BME280;43474;46.510;6.686;2024-01-11T01:11:30;97087.28;;;-1.02;100.00
57644;BME280;43474;46.510;6.686;2024-01-11T01:13:56;97049.31;;;-1.13;100.00
57644;BME280;43474;46.510;6.686;2024-01-11T01:16:21;97031.75;;;-1.29;100.00
57644;BME280;43474;46.510;6.686;2024-01-11T01:18:47;97066.09;;;-1.08;100.00
57644;BME280;43474;46.510;6.686;2024-01-11T01:21:13;97054.47;;;-1.31;100.00
57644;BME280;43474;46.510;6.686;2024-01-11T01:23:38;97019.44;;;-1.54;100.00
57644;BME280;43474;46.510;6.686;2024-01-11T01:26:04;97048.88;;;-1.36;100.00
57644;BME280;43474;46.510;6.686;2024-01-11T01:28:30;97056.16;;;-1.40;100.00
57644;BME280;43474;46.510;6.686;2024-01-11T01:30:55;97059.13;;;-1.35;100.00
57644;BME280;43474;46.510;6.686;2024-01-11T01:33:21;97057.13;;;-1.41;100.00
57644;BME280;43474;46.510;6.686;2024-01-11T01:35:47;97090.38;;;-1.17;100.00
57644;BME280;43474;46.510;6.686;2024-01-11T01:38:13;97096.66;;;-1.37;100.00
57644;BME280;43474;46.510;6.686;2024-01-11T01:40:38;97088.97;;;-1.29;100.00
57644;BME280;43474;46.510;6.686;2024-01-11T01:43:07;97042.78;;;-1.45;100.00
57644;BME280;43474;46.510;6.686;2024-01-11T01:45:35;97106.59;;;-1.05;100.00
57644;BME280;43474;46.510;6.686;2024-01-11T01:48:02;97068.34;;;-1.40;100.00
57644;BME280;43474;46.510;6.686;2024-01-11T01:50:28;97083.00;;;-1.39;100.00
57644;BME280;43474;46.510;6.686;2024-01-11T01:52:55;97113.13;;;-1.19;100.00
57644;BME280;43474;46.510;6.686;2024-01-11T01:55:22;97049.06;;;-1.65;100.00
57644;BME280;43474;46.510;6.686;2024-01-11T01:57:49;97112.38;;;-1.11;100.00
57644;BME280;43474;46.510;6.686;2024-01-11T02:00:16;97116.25;;;-0.97;100.00
57644;BME280;43474;46.510;6.686;2024-01-11T02:02:50;97072.88;;;-1.42;100.00
57644;BME280;43474;46.510;6.686;2024-01-11T02:05:16;97109.50;;;-1.08;100.00
57644;BME280;43474;46.510;6.686;2024-01-11T02:07:44;97108.72;;;-1.18;100.00
57644;BME280;43474;46.510;6.686;2024-01-11T02:10:10;97109.56;;;-1.18;100.00
57644;BME280;43474;46.510;6.686;2024-01-11T02:12:36;97046.59;;;-1.67;100.00
57644;BME280;43474;46.510;6.686;2024-01-11T02:15:05;97122.13;;;-1.13;100.00
57644;BME280;43474;46.510;6.686;2024-01-11T02:17:31;97077.88;;;-1.31;100.00
57644;BME280;43474;46.510;6.686;2024-01-11T02:19:57;97075.28;;;-1.59;100.00
57644;BME280;43474;46.510;6.686;2024-01-11T02:22:32;97046.75;;;-1.68;100.00
57644;BME280;43474;46.510;6.686;2024-01-11T02:24:59;97063.63;;;-1.54;100.00
57644;BME280;43474;46.510;6.686;2024-01-11T02:27:25;97069.28;;;-1.59;100.00
57644;BME280;43474;46.510;6.686;2024-01-11T02:29:51;97115.19;;;-1.05;100.00
57644;BME280;43474;46.510;6.686;2024-01-11T02:32:17;97116.81;;;-1.21;100.00
57644;BME280;43474;46.510;6.686;2024-01-11T02:34:43;97072.28;;;-1.54;100.00
57644;BME280;43474;46.510;6.686;2024-01-11T02:37:08;97081.91;;;-1.46;100.00
57644;BME280;43474;46.510;6.686;2024-01-11T02:39:34;97100.50;;;-1.41;100.00
57644;BME280;43474;46.510;6.686;2024-01-11T02:42:00;97121.84;;;-1.38;100.00
57644;BME280;43474;46.510;6.686;2024-01-11T02:44:26;97077.91;;;-1.59;100.00
57644;BME280;43474;46.510;6.686;2024-01-11T02:46:52;97078.72;;;-1.58;100.00
57644;BME280;43474;46.510;6.686;2024-01-11T02:49:17;97100.88;;;-1.36;100.00
57644;BME280;43474;46.510;6.686;2024-01-11T02:51:43;97098.50;;;-1.30;100.00
57644;BME280;43474;46.510;6.686;2024-01-11T02:54:09;97042.41;;;-1.77;100.00
57644;BME280;43474;46.510;6.686;2024-01-11T02:56:35;97099.41;;;-1.39;100.00
57644;BME280;43474;46.510;6.686;2024-01-11T02:59:00;97050.22;;;-1.77;100.00
57644;BME280;43474;46.510;6.686;2024-01-11T03:01:26;97078.06;;;-1.70;100.00
57644;BME280;43474;46.510;6.686;2024-01-11T03:03:52;97067.34;;;-1.57;100.00
57644;BME280;43474;46.510;6.686;2024-01-11T03:06:18;97084.41;;;-1.54;100.00
57644;BME280;43474;46.510;6.686;2024-01-11T03:08:50;97023.34;;;-1.96;100.00
57644;BME280;43474;46.510;6.686;2024-01-11T03:11:16;97126.97;;;-1.56;100.00
57644;BME280;43474;46.510;6.686;2024-01-11T03:13:42;97123.69;;;-1.30;100.00
57644;BME280;43474;46.510;6.686;2024-01-11T03:16:08;97067.94;;;-1.63;100.00
57644;BME280;43474;46.510;6.686;2024-01-11T03:18:33;97100.88;;;-1.36;100.00
57644;BME280;43474;46.510;6.686;2024-01-11T03:20:59;97112.75;;;-1.24;100.00
57644;BME280;43474;46.510;6.686;2024-01-11T03:23:25;97080.13;;;-1.46;100.00
57644;BME280;43474;46.510;6.686;2024-01-11T03:25:50;97105.97;;;-1.44;100.00
57644;BME280;43474;46.510;6.686;2024-01-11T03:28:16;97104.59;;;-1.39;100.00
57644;BME280;43474;46.510;6.686;2024-01-11T03:30:42;97088.19;;;-1.39;100.00
57644;BME280;43474;46.510;6.686;2024-01-11T03:33:08;97083.56;;;-1.45;100.00
57644;BME280;43474;46.510;6.686;2024-01-11T03:35:34;97102.00;;;-1.39;100.00
57644;BME280;43474;46.510;6.686;2024-01-11T03:37:59;97090.97;;;-1.50;100.00
57644;BME280;43474;46.510;6.686;2024-01-11T03:40:25;97083.94;;;-1.40;100.00
57644;BME280;43474;46.510;6.686;2024-01-11T03:42:52;97069.66;;;-1.54;100.00
57644;BME280;43474;46.510;6.686;2024-01-11T03:45:18;97107.38;;;-1.22;100.00
57644;BME280;43474;46.510;6.686;2024-01-11T03:47:47;97111.09;;;-1.25;100.00
57644;BME280;43474;46.510;6.686;2024-01-11T03:50:13;97049.91;;;-1.74;100.00
57644;BME280;43474;46.510;6.686;2024-01-11T03:52:39;97108.25;;;-1.32;100.00
57644;BME280;43474;46.510;6.686;2024-01-11T03:55:05;97101.69;;;-1.36;100.00
57644;BME280;43474;46.510;6.686;2024-01-11T03:57:31;97073.09;;;-1.53;100.00
57644;BME280;43474;46.510;6.686;2024-01-11T03:59:57;97041.03;;;-1.72;100.00
57644;BME280;43474;46.510;6.686;2024-01-11T04:02:24;97060.41;;;-1.66;100.00
57644;BME280;43474;46.510;6.686;2024-01-11T04:04:50;97098.63;;;-1.21;100.00
57644;BME280;43474;46.510;6.686;2024-01-11T04:07:16;97105.28;;;-1.37;100.00
57644;BME280;43474;46.510;6.686;2024-01-11T04:09:42;97043.66;;;-1.82;100.00
57644;BME280;43474;46.510;6.686;2024-01-11T04:12:08;97090.91;;;-1.41;100.00
57644;BME280;43474;46.510;6.686;2024-01-11T04:14:38;97047.00;;;-1.62;100.00
57644;BME280;43474;46.510;6.686;2024-01-11T04:17:04;97060.09;;;-1.53;100.00
57644;BME280;43474;46.510;6.686;2024-01-11T04:19:30;97075.63;;;-1.44;100.00
57644;BME280;43474;46.510;6.686;2024-01-11T04:21:55;97063.41;;;-1.61;100.00
57644;BME280;43474;46.510;6.686;2024-01-11T04:24:21;97045.34;;;-1.63;100.00
57644;BME280;43474;46.510;6.686;2024-01-11T04:26:47;97063.44;;;-1.43;100.00
57644;BME280;43474;46.510;6.686;2024-01-11T04:29:12;97025.75;;;-1.57;100.00
57644;BME280;43474;46.510;6.686;2024-01-11T04:31:38;97005.78;;;-1.57;100.00
57644;BME280;43474;46.510;6.686;2024-01-11T04:34:04;97092.00;;;-1.34;100.00
57644;BME280;43474;46.510;6.686;2024-01-11T04:36:29;97038.88;;;-1.49;100.00
57644;BME280;43474;46.510;6.686;2024-01-11T04:38:55;97054.00;;;-1.44;100.00
57644;BME280;43474;46.510;6.686;2024-01-11T04:41:21;97045.75;;;-1.58;100.00
57644;BME280;43474;46.510;6.686;2024-01-11T04:43:47;97008.53;;;-1.86;100.00
57644;BME280;43474;46.510;6.686;2024-01-11T04:46:17;96994.34;;;-1.91;100.00
57644;BME280;43474;46.510;6.686;2024-01-11T04:48:43;97026.91;;;-1.69;100.00
57644;BME280;43474;46.510;6.686;2024-01-11T04:51:10;97079.81;;;-1.33;100.00
57644;BME280;43474;46.510;6.686;2024-01-11T04:53:37;97055.66;;;-1.43;100.00
57644;BME280;43474;46.510;6.686;2024-01-11T04:56:03;97069.69;;;-1.36;100.00
57644;BME280;43474;46.510;6.686;2024-01-11T04:58:29;97056.84;;;-1.65;100.00
57644;BME280;43474;46.510;6.686;2024-01-11T05:00:55;97006.75;;;-1.85;100.00
57644;BME280;43474;46.510;6.686;2024-01-11T05:03:21;97052.56;;;-1.57;100.00
57644;BME280;43474;46.510;6.686;2024-01-11T05:05:46;97051.00;;;-1.49;100.00
57644;BME280;43474;46.510;6.686;2024-01-11T05:08:12;97081.06;;;-1.37;100.00
57644;BME280;43474;46.510;6.686;2024-01-11T05:10:38;97048.63;;;-1.61;100.00
57644;BME280;43474;46.510;6.686;2024-01-11T05:13:04;97077.22;;;-1.33;100.00
57644;BME280;43474;46.510;6.686;2024-01-11T05:15:29;97055.44;;;-1.60;100.00
57644;BME280;43474;46.510;6.686;2024-01-11T05:17:55;97010.06;;;-1.83;100.00
57644;BME280;43474;46.510;6.686;2024-01-11T05:20:22;97039.97;;;-1.51;100.00
57644;BME280;43474;46.510;6.686;2024-01-11T05:22:48;97015.44;;;-1.67;100.00
57644;BME280;43474;46.510;6.686;2024-01-11T05:25:13;96993.97;;;-1.96;100.00
57644;BME280;43474;46.510;6.686;2024-01-11T05:27:39;97067.84;;;-1.44;100.00
57644;BME280;43474;46.510;6.686;2024-01-11T05:30:06;96976.75;;;-1.97;100.00
57644;BME280;43474;46.510;6.686;2024-01-11T05:32:32;97024.63;;;-1.72;100.00
57644;BME280;43474;46.510;6.686;2024-01-11T05:34:58;97066.22;;;-1.54;100.00
57644;BME280;43474;46.510;6.686;2024-01-11T05:37:24;97007.84;;;-1.78;100.00
57644;BME280;43474;46.510;6.686;2024-01-11T05:39:49;97020.41;;;-1.73;100.00
57644;BME280;43474;46.510;6.686;2024-01-11T05:42:15;97016.06;;;-1.83;100.00
57644;BME280;43474;46.510;6.686;2024-01-11T05:44:41;97018.69;;;-1.65;100.00
57644;BME280;43474;46.510;6.686;2024-01-11T05:47:07;97053.94;;;-1.35;100.00
57644;BME280;43474;46.510;6.686;2024-01-11T05:49:32;97066.13;;;-1.35;100.00
57644;BME280;43474;46.510;6.686;2024-01-11T05:51:58;97019.31;;;-1.53;100.00
57644;BME280;43474;46.510;6.686;2024-01-11T05:54:24;97035.72;;;-1.52;100.00
57644;BME280;43474;46.510;6.686;2024-01-11T05:56:51;97069.09;;;-1.48;100.00
57644;BME280;43474;46.510;6.686;2024-01-11T05:59:21;97030.47;;;-1.70;100.00
57644;BME280;43474;46.510;6.686;2024-01-11T06:01:47;97078.19;;;-1.34;100.00
57644;BME280;43474;46.510;6.686;2024-01-11T06:04:13;97032.59;;;-1.56;100.00
57644;BME280;43474;46.510;6.686;2024-01-11T06:06:40;97042.66;;;-1.43;100.00
57644;BME280;43474;46.510;6.686;2024-01-11T06:09:06;97042.59;;;-1.34;100.00
57644;BME280;43474;46.510;6.686;2024-01-11T06:11:32;97039.84;;;-1.32;100.00
57644;BME280;43474;46.510;6.686;2024-01-11T06:13:57;97037.19;;;-1.50;100.00
57644;BME280;43474;46.510;6.686;2024-01-11T06:16:23;97036.25;;;-1.49;100.00
57644;BME280;43474;46.510;6.686;2024-01-11T06:18:50;97077.22;;;-1.33;100.00
57644;BME280;43474;46.510;6.686;2024-01-11T06:21:16;97063.09;;;-1.31;100.00
57644;BME280;43474;46.510;6.686;2024-01-11T06:23:45;97087.44;;;-1.32;100.00
57644;BME280;43474;46.510;6.686;2024-01-11T06:26:11;97081.38;;;-1.22;100.00
57644;BME280;43474;46.510;6.686;2024-01-11T06:28:37;97068.38;;;-1.22;100.00
57644;BME280;43474;46.510;6.686;2024-01-11T06:31:03;97026.00;;;-1.50;100.00
57644;BME280;43474;46.510;6.686;2024-01-11T06:33:29;97080.84;;;-1.26;100.00
57644;BME280;43474;46.510;6.686;2024-01-11T06:35:55;96995.88;;;-1.71;100.00
57644;BME280;43474;46.510;6.686;2024-01-11T06:38:21;97000.38;;;-1.63;100.00
57644;BME280;43474;46.510;6.686;2024-01-11T06:40:50;97011.56;;;-1.63;100.00
57644;BME280;43474;46.510;6.686;2024-01-11T06:43:16;97029.41;;;-1.50;100.00
57644;BME280;43474;46.510;6.686;2024-01-11T06:45:42;97034.81;;;-1.61;100.00
57644;BME280;43474;46.510;6.686;2024-01-11T06:48:08;97033.13;;;-1.52;100.00
57644;BME280;43474;46.510;6.686;2024-01-11T06:50:34;97028.22;;;-1.56;100.00
57644;BME280;43474;46.510;6.686;2024-01-11T06:53:00;97054.50;;;-1.59;100.00
57644;BME280;43474;46.510;6.686;2024-01-11T06:55:27;97045.78;;;-1.67;100.00
57644;BME280;43474;46.510;6.686;2024-01-11T06:57:53;97005.41;;;-1.89;100.00
57644;BME280;43474;46.510;6.686;2024-01-11T07:00:19;97051.69;;;-1.75;100.00
57644;BME280;43474;46.510;6.686;2024-01-11T07:02:45;97044.13;;;-1.59;100.00
57644;BME280;43474;46.510;6.686;2024-01-11T07:05:11;97053.44;;;-1.38;100.00
57644;BME280;43474;46.510;6.686;2024-01-11T07:07:37;97045.75;;;-1.58;100.00
57644;BME280;43474;46.510;6.686;2024-01-11T07:10:03;97093.03;;;-1.26;100.00
57644;BME280;43474;46.510;6.686;2024-01-11T07:12:31;97050.84;;;-1.66;100.00
57644;BME280;43474;46.510;6.686;2024-01-11T07:14:58;97052.41;;;-1.55;100.00
57644;BME280;43474;46.510;6.686;2024-01-11T07:17:23;97033.81;;;-1.78;100.00
57644;BME280;43474;46.510;6.686;2024-01-11T07:19:49;97101.69;;;-1.36;100.00
57644;BME280;43474;46.510;6.686;2024-01-11T07:22:15;97021.38;;;-1.57;100.00
57644;BME280;43474;46.510;6.686;2024-01-11T07:24:41;97043.28;;;-1.59;100.00
57644;BME280;43474;46.510;6.686;2024-01-11T07:27:07;97089.72;;;-1.19;100.00
57644;BME280;43474;46.510;6.686;2024-01-11T07:29:33;97102.88;;;-1.02;100.00
57644;BME280;43474;46.510;6.686;2024-01-11T07:31:59;97011.44;;;-1.61;100.00
57644;BME280;43474;46.510;6.686;2024-01-11T07:34:26;97030.38;;;-1.51;100.00
57644;BME280;43474;46.510;6.686;2024-01-11T07:36:52;97052.56;;;-1.29;100.00
57644;BME280;43474;46.510;6.686;2024-01-11T07:39:19;97096.50;;;-1.08;100.00
57644;BME280;43474;46.510;6.686;2024-01-11T07:41:44;97046.19;;;-1.62;100.00
57644;BME280;43474;46.510;6.686;2024-01-11T07:44:10;97093.03;;;-1.26;100.00
57644;BME280;43474;46.510;6.686;2024-01-11T07:46:36;97057.19;;;-1.50;100.00
57644;BME280;43474;46.510;6.686;2024-01-11T07:49:03;97066.56;;;-1.40;100.00
57644;BME280;43474;46.510;6.686;2024-01-11T07:51:28;97072.28;;;-1.54;100.00
57644;BME280;43474;46.510;6.686;2024-01-11T07:53:54;97086.88;;;-1.25;100.00
57644;BME280;43474;46.510;6.686;2024-01-11T07:56:20;97046.56;;;-1.57;100.00
57644;BME280;43474;46.510;6.686;2024-01-11T07:58:46;97129.56;;;-1.00;100.00
57644;BME280;43474;46.510;6.686;2024-01-11T08:01:11;97117.94;;;-1.06;100.00
57644;BME280;43474;46.510;6.686;2024-01-11T08:03:38;97129.59;;;-1.10;100.00
57644;BME280;43474;46.510;6.686;2024-01-11T08:06:04;97098.56;;;-1.12;100.00
57644;BME280;43474;46.510;6.686;2024-01-11T08:08:30;97060.16;;;-1.45;100.00
57644;BME280;43474;46.510;6.686;2024-01-11T08:10:56;97116.88;;;-1.31;100.00
57644;BME280;43474;46.510;6.686;2024-01-11T08:13:22;97077.97;;;-1.50;100.00
57644;BME280;43474;46.510;6.686;2024-01-11T08:15:47;97088.25;;;-1.49;100.00
57644;BME280;43474;46.510;6.686;2024-01-11T08:18:14;97115.75;;;-1.56;100.00
57644;BME280;43474;46.510;6.686;2024-01-11T08:20:40;97132.56;;;-1.50;100.00
57644;BME280;43474;46.510;6.686;2024-01-11T08:23:06;97123.69;;;-1.58;100.00
57644;BME280;43474;46.510;6.686;2024-01-11T08:25:32;97093.06;;;-1.54;100.00
57644;BME280;43474;46.510;6.686;2024-01-11T08:27:58;97146.63;;;-1.16;100.00
57644;BME280;43474;46.510;6.686;2024-01-11T08:30:23;97166.03;;;-1.10;100.00
57644;BME280;43474;46.510;6.686;2024-01-11T08:32:49;97094.34;;;-1.68;100.00
57644;BME280;43474;46.510;6.686;2024-01-11T08:35:15;97086.00;;;-1.71;100.00
57644;BME280;43474;46.510;6.686;2024-01-11T08:37:46;97174.59;;;-1.00;100.00
57644;BME280;43474;46.510;6.686;2024-01-11T08:40:12;97169.38;;;-1.00;100.00
57644;BME280;43474;46.510;6.686;2024-01-11T08:43:01;97105.47;;;-1.48;100.00
57644;BME280;43474;46.510;6.686;2024-01-11T08:45:34;97095.13;;;-1.58;100.00
57644;BME280;43474;46.510;6.686;2024-01-11T08:48:21;97094.84;;;-1.64;100.00
57644;BME280;43474;46.510;6.686;2024-01-11T08:54:11;97091.97;;;-1.61;100.00
57644;BME280;43474;46.510;6.686;2024-01-11T08:56:42;97101.72;;;-1.63;100.00
57644;BME280;43474;46.510;6.686;2024-01-11T08:59:19;97102.09;;;-1.58;100.00
57644;BME280;43474;46.510;6.686;2024-01-11T09:01:54;97106.44;;;-1.49;100.00
57644;BME280;43474;46.510;6.686;2024-01-11T09:04:23;97177.94;;;-1.08;100.00
57644;BME280;43474;46.510;6.686;2024-01-11T09:10:02;97126.94;;;-1.46;100.00
57644;BME280;43474;46.510;6.686;2024-01-11T09:12:44;97094.66;;;-1.43;100.00
57644;BME280;43474;46.510;6.686;2024-01-11T09:15:14;97102.38;;;-1.61;100.00
57644;BME280;43474;46.510;6.686;2024-01-11T09:17:45;97170.50;;;-1.02;100.00
57644;BME280;43474;46.510;6.686;2024-01-11T09:20:13;97110.69;;;-1.30;100.00
57644;BME280;43474;46.510;6.686;2024-01-11T09:22:48;97084.03;;;-1.32;100.00
57644;BME280;43474;46.510;6.686;2024-01-11T09:25:17;97123.38;;;-1.17;100.00
57644;BME280;43474;46.510;6.686;2024-01-11T09:27:45;97192.78;;;-0.72;100.00
57644;BME280;43474;46.510;6.686;2024-01-11T09:30:29;97108.41;;;-1.15;100.00
57644;BME280;43474;46.510;6.686;2024-01-11T09:33:09;97092.25;;;-1.09;100.00
57644;BME280;43474;46.510;6.686;2024-01-11T09:35:35;97144.66;;;-0.86;100.00
57644;BME280;43474;46.510;6.686;2024-01-11T09:38:01;97116.13;;;-0.78;100.00
57644;BME280;43474;46.510;6.686;2024-01-11T09:40:32;97128.25;;;-0.69;100.00
57644;BME280;43474;46.510;6.686;2024-01-11T09:43:02;97195.06;;;-0.24;100.00
57644;BME280;43474;46.510;6.686;2024-01-11T09:45:37;97182.97;;;-0.25;100.00
57644;BME280;43474;46.510;6.686;2024-01-11T09:48:06;97159.66;;;-0.35;100.00
57644;BME280;43474;46.510;6.686;2024-01-11T09:50:35;97098.22;;;-0.63;100.00
57644;BME280;43474;46.510;6.686;2024-01-11T09:53:02;97188.28;;;0.09;100.00
57644;BME280;43474;46.510;6.686;2024-01-11T09:55:34;97101.88;;;-0.74;100.00
57644;BME280;43474;46.510;6.686;2024-01-11T09:58:03;97146.47;;;-0.51;100.00
57644;BME280;43474;46.510;6.686;2024-01-11T10:00:34;97150.25;;;-0.45;100.00
57644;BME280;43474;46.510;6.686;2024-01-11T10:03:03;97160.84;;;-0.29;100.00
57644;BME280;43474;46.510;6.686;2024-01-11T10:05:44;97175.25;;;-0.53;100.00
57644;BME280;43474;46.510;6.686;2024-01-11T10:08:12;97197.72;;;-0.34;100.00
57644;BME280;43474;46.510;6.686;2024-01-11T10:10:43;97113.16;;;-0.83;100.00
57644;BME280;43474;46.510;6.686;2024-01-11T10:13:55;97121.03;;;-0.93;100.00
57644;BME280;43474;46.510;6.686;2024-01-11T10:17:10;97190.50;;;-0.22;100.00
57644;BME280;43474;46.510;6.686;2024-01-11T10:19:44;97131.28;;;-0.56;100.00
57644;BME280;43474;46.510;6.686;2024-01-11T10:23:30;97160.91;;;-0.57;100.00
57644;BME280;43474;46.510;6.686;2024-01-11T10:26:52;97148.34;;;-0.43;100.00
57644;BME280;43474;46.510;6.686;2024-01-11T10:29:38;97133.97;;;-0.65;100.00
57644;BME280;43474;46.510;6.686;2024-01-11T10:32:22;97188.56;;;-0.38;100.00
57644;BME280;43474;46.510;6.686;2024-01-11T10:35:22;97182.09;;;-0.16;100.00
57644;BME280;43474;46.510;6.686;2024-01-11T10:46:34;97188.38;;;-0.01;100.00
57644;BME280;43474;46.510;6.686;2024-01-11T10:53:51;97182.91;;;-0.15;100.00
57644;BME280;43474;46.510;6.686;2024-01-11T11:35:24;97096.19;;;-0.52;100.00
57644;BME280;43474;46.510;6.686;2024-01-11T11:41:49;97169.50;;;-0.03;100.00
57644;BME280;43474;46.510;6.686;2024-01-11T11:45:25;97161.59;;;-0.11;100.00
57644;BME280;43474;46.510;6.686;2024-01-11T11:49:07;97169.13;;;-0.08;100.00
57644;BME280;43474;46.510;6.686;2024-01-11T11:56:12;97164.66;;;-0.15;100.00
57644;BME280;43474;46.510;6.686;2024-01-11T11:59:42;97162.50;;;-0.02;100.00
57644;BME280;43474;46.510;6.686;2024-01-11T12:10:09;97137.16;;;-0.18;100.00
57644;BME280;43474;46.510;6.686;2024-01-11T12:16:25;97086.38;;;-0.58;100.00
57644;BME280;43474;46.510;6.686;2024-01-11T12:19:00;97077.63;;;-0.74;100.00
57644;BME280;43474;46.510;6.686;2024-01-11T12:21:39;97072.28;;;-0.73;100.00
57644;BME280;43474;46.510;6.686;2024-01-11T12:24:09;97073.38;;;-0.75;100.00
57644;BME280;43474;46.510;6.686;2024-01-11T12:27:50;97081.88;;;-0.73;100.00
57644;BME280;43474;46.510;6.686;2024-01-11T12:34:44;97112.09;;;-0.37;100.00
57644;BME280;43474;46.510;6.686;2024-01-11T12:37:27;97069.59;;;-0.63;100.00
57644;BME280;43474;46.510;6.686;2024-01-11T12:40:22;97067.50;;;-0.60;100.00
57644;BME280;43474;46.510;6.686;2024-01-11T12:43:13;97144.88;;;-0.26;100.00
57644;BME280;43474;46.510;6.686;2024-01-11T12:46:06;97065.72;;;-0.59;100.00
57644;BME280;43474;46.510;6.686;2024-01-11T12:52:41;97111.88;;;-0.43;100.00
57644;BME280;43474;46.510;6.686;2024-01-11T13:02:38;97071.41;;;-0.38;100.00
57644;BME280;43474;46.510;6.686;2024-01-11T13:05:57;97097.44;;;-0.38;100.00
57644;BME280;43474;46.510;6.686;2024-01-11T13:08:56;97095.72;;;-0.29;100.00
57644;BME280;43474;46.510;6.686;2024-01-11T13:11:58;97093.66;;;-0.43;100.00
57644;BME280;43474;46.510;6.686;2024-01-11T13:14:58;97073.53;;;-0.77;100.00
57644;BME280;43474;46.510;6.686;2024-01-11T13:17:38;97058.81;;;-0.68;100.00
57644;BME280;43474;46.510;6.686;2024-01-11T13:20:14;97081.75;;;-0.46;100.00
57644;BME280;43474;46.510;6.686;2024-01-11T13:23:12;97052.72;;;-0.77;100.00
57644;BME280;43474;46.510;6.686;2024-01-11T13:25:44;97110.25;;;-0.62;100.00
57644;BME280;43474;46.510;6.686;2024-01-11T13:29:09;97086.69;;;-0.79;100.00
57644;BME280;43474;46.510;6.686;2024-01-11T13:32:09;97093.31;;;-0.84;100.00
57644;BME280;43474;46.510;6.686;2024-01-11T13:34:44;97051.97;;;-0.69;100.00
57644;BME280;43474;46.510;6.686;2024-01-11T13:37:25;97071.91;;;-0.78;100.00
57644;BME280;43474;46.510;6.686;2024-01-11T13:40:11;97135.59;;;-0.46;100.00
57644;BME280;43474;46.510;6.686;2024-01-11T13:43:10;97076.13;;;-0.59;100.00
57644;BME280;43474;46.510;6.686;2024-01-11T13:49:44;97135.59;;;-0.29;100.00
57644;BME280;43474;46.510;6.686;2024-01-11T13:52:40;97078.88;;;-0.79;100.00
57644;BME280;43474;46.510;6.686;2024-01-11T13:55:17;97130.09;;;-0.43;100.00
57644;BME280;43474;46.510;6.686;2024-01-11T13:58:11;97147.81;;;-0.29;100.00
57644;BME280;43474;46.510;6.686;2024-01-11T14:01:11;97089.78;;;-0.75;100.00
57644;BME280;43474;46.510;6.686;2024-01-11T14:04:08;97091.75;;;-0.77;100.00
57644;BME280;43474;46.510;6.686;2024-01-11T14:07:14;97118.72;;;-0.60;100.00
57644;BME280;43474;46.510;6.686;2024-01-11T14:09:40;97114.66;;;-0.63;100.00
57644;BME280;43474;46.510;6.686;2024-01-11T14:12:11;97084.88;;;-0.96;100.00
57644;BME280;43474;46.510;6.686;2024-01-11T14:14:46;97164.25;;;-0.46;100.00
57644;BME280;43474;46.510;6.686;2024-01-11T14:17:27;97165.50;;;-0.68;100.00
57644;BME280;43474;46.510;6.686;2024-01-11T14:19:55;97120.94;;;-1.01;100.00
57644;BME280;43474;46.510;6.686;2024-01-11T14:22:24;97128.47;;;-0.80;100.00
57644;BME280;43474;46.510;6.686;2024-01-11T14:24:51;97078.72;;;-0.95;100.00
57644;BME280;43474;46.510;6.686;2024-01-11T14:27:26;97171.78;;;-0.43;100.00
57644;BME280;43474;46.510;6.686;2024-01-11T14:30:01;97173.47;;;-0.52;100.00
57644;BME280;43474;46.510;6.686;2024-01-11T14:32:33;97126.97;;;-0.83;100.00
57644;BME280;43474;46.510;6.686;2024-01-11T14:35:00;97082.72;;;-1.00;100.00
57644;BME280;43474;46.510;6.686;2024-01-11T14:37:59;97095.59;;;-0.99;100.00
57644;BME280;43474;46.510;6.686;2024-01-11T14:41:20;97120.72;;;-1.08;100.00
57644;BME280;43474;46.510;6.686;2024-01-11T14:44:07;97118.06;;;-0.98;100.00
57644;BME280;43474;46.510;6.686;2024-01-11T14:46:51;97093.94;;;-1.18;100.00
57644;BME280;43474;46.510;6.686;2024-01-11T14:50:17;97157.53;;;-0.67;100.00
57644;BME280;43474;46.510;6.686;2024-01-11T14:53:52;97146.72;;;-0.90;100.00